EXX weather

Davidson County Airport
Lexington, North Carolina, United States

Public forecast

Using degrees Fahrenheit for public forecast. Weather courtesy of forecast.io.

Current aviation weather report (METAR) for Davidson County Airport

Retrieved 2020/08/04 10:55 UTC (12 minutes ago):

KEXX 041055Z AUTO 23004KT 10SM CLR 21/21 A2991 RMK AO2 T02050205

Closest aviation forecast (TAF) to Davidson County Airport

Closest forecast is Smith Reynolds Airport, 21.5 nm (39.9 km) N. Retrieved 2020/08/04 06:22 UTC (5 hours ago):

TAF KINT 040520Z 0406/0506 04010G20KT P6SM VCSH BKN009 FM040900 34008G16KT P6SM BKN015 FM041500 27009KT P6SM SCT025 FM041800 23010KT P6SM SCT050